sensor_id;sensor_type;location;lat;lon;timestamp;temperature;humidity
44166;DHT22;30476;53.468;9.826;2023-09-12T00:01:26;22.70;99.90
44166;DHT22;30476;53.468;9.826;2023-09-12T00:03:51;22.60;99.90
44166;DHT22;30476;53.468;9.826;2023-09-12T00:06:17;22.70;99.90
44166;DHT22;30476;53.468;9.826;2023-09-12T00:08:43;22.60;99.90
44166;DHT22;30476;53.468;9.826;2023-09-12T00:11:10;22.60;99.90
44166;DHT22;30476;53.468;9.826;2023-09-12T00:13:38;22.60;99.90
44166;DHT22;30476;53.468;9.826;2023-09-12T00:16:04;22.60;99.90
44166;DHT22;30476;53.468;9.826;2023-09-12T00:18:31;22.60;99.90
44166;DHT22;30476;53.468;9.826;2023-09-12T00:20:57;22.60;99.90
44166;DHT22;30476;53.468;9.826;2023-09-12T00:23:24;22.60;99.90
44166;DHT22;30476;53.468;9.826;2023-09-12T00:25:50;22.60;99.90
44166;DHT22;30476;53.468;9.826;2023-09-12T00:28:20;22.60;99.90
44166;DHT22;30476;53.468;9.826;2023-09-12T00:30:46;22.50;99.90
44166;DHT22;30476;53.468;9.826;2023-09-12T00:33:12;22.60;99.90
44166;DHT22;30476;53.468;9.826;2023-09-12T00:35:38;22.50;99.90
44166;DHT22;30476;53.468;9.826;2023-09-12T00:38:03;22.50;99.90
44166;DHT22;30476;53.468;9.826;2023-09-12T00:40:29;22.50;99.90
44166;DHT22;30476;53.468;9.826;2023-09-12T00:42:55;22.50;99.90
44166;DHT22;30476;53.468;9.826;2023-09-12T00:45:21;22.50;99.90
44166;DHT22;30476;53.468;9.826;2023-09-12T00:47:48;22.50;99.90
44166;DHT22;30476;53.468;9.826;2023-09-12T00:50:15;22.50;99.90
44166;DHT22;30476;53.468;9.826;2023-09-12T00:52:42;22.50;99.90
44166;DHT22;30476;53.468;9.826;2023-09-12T00:55:09;22.50;99.90
44166;DHT22;30476;53.468;9.826;2023-09-12T00:57:35;22.50;99.90
44166;DHT22;30476;53.468;9.826;2023-09-12T01:00:03;22.50;99.90
44166;DHT22;30476;53.468;9.826;2023-09-12T01:02:43;22.40;99.90
44166;DHT22;30476;53.468;9.826;2023-09-12T01:05:10;22.40;99.90
44166;DHT22;30476;53.468;9.826;2023-09-12T01:07:37;22.40;99.90
44166;DHT22;30476;53.468;9.826;2023-09-12T01:10:07;22.40;99.90
44166;DHT22;30476;53.468;9.826;2023-09-12T01:12:33;22.40;99.90
44166;DHT22;30476;53.468;9.826;2023-09-12T01:14:59;22.40;99.90
44166;DHT22;30476;53.468;9.826;2023-09-12T01:17:25;22.40;99.90
44166;DHT22;30476;53.468;9.826;2023-09-12T01:19:53;22.30;99.90
44166;DHT22;30476;53.468;9.826;2023-09-12T01:25:40;22.30;99.90
44166;DHT22;30476;53.468;9.826;2023-09-12T01:28:09;22.30;99.90
44166;DHT22;30476;53.468;9.826;2023-09-12T01:30:36;22.40;99.90
44166;DHT22;30476;53.468;9.826;2023-09-12T01:33:04;22.40;99.90
44166;DHT22;30476;53.468;9.826;2023-09-12T01:35:30;22.40;99.90
44166;DHT22;30476;53.468;9.826;2023-09-12T01:37:56;22.30;99.90
44166;DHT22;30476;53.468;9.826;2023-09-12T01:40:46;22.40;99.90
44166;DHT22;30476;53.468;9.826;2023-09-12T01:43:15;22.40;99.90
44166;DHT22;30476;53.468;9.826;2023-09-12T01:45:42;22.30;99.90
44166;DHT22;30476;53.468;9.826;2023-09-12T01:48:10;22.40;99.90
44166;DHT22;30476;53.468;9.826;2023-09-12T01:50:37;22.40;99.90
44166;DHT22;30476;53.468;9.826;2023-09-12T01:53:03;22.30;99.90
44166;DHT22;30476;53.468;9.826;2023-09-12T01:55:29;22.30;99.90
44166;DHT22;30476;53.468;9.826;2023-09-12T01:57:56;22.30;99.90
44166;DHT22;30476;53.468;9.826;2023-09-12T02:00:23;22.30;99.90
44166;DHT22;30476;53.468;9.826;2023-09-12T02:02:50;22.30;99.90
44166;DHT22;30476;53.468;9.826;2023-09-12T02:05:17;22.30;99.90
44166;DHT22;30476;53.468;9.826;2023-09-12T02:07:45;22.20;99.90
44166;DHT22;30476;53.468;9.826;2023-09-12T02:10:11;22.20;99.90
44166;DHT22;30476;53.468;9.826;2023-09-12T02:12:37;22.20;99.90
44166;DHT22;30476;53.468;9.826;2023-09-12T02:15:04;22.20;99.90
44166;DHT22;30476;53.468;9.826;2023-09-12T02:17:29;22.20;99.90
44166;DHT22;30476;53.468;9.826;2023-09-12T02:19:55;22.20;99.90
44166;DHT22;30476;53.468;9.826;2023-09-12T02:22:21;22.20;99.90
44166;DHT22;30476;53.468;9.826;2023-09-12T02:24:47;22.10;99.90
44166;DHT22;30476;53.468;9.826;2023-09-12T02:27:12;22.10;99.90
44166;DHT22;30476;53.468;9.826;2023-09-12T02:29:41;22.10;99.90
44166;DHT22;30476;53.468;9.826;2023-09-12T02:32:06;22.10;99.90
44166;DHT22;30476;53.468;9.826;2023-09-12T02:34:33;22.10;99.90
44166;DHT22;30476;53.468;9.826;2023-09-12T02:36:58;22.20;99.90
44166;DHT22;30476;53.468;9.826;2023-09-12T02:39:24;22.10;99.90
44166;DHT22;30476;53.468;9.826;2023-09-12T02:41:50;22.10;99.90
44166;DHT22;30476;53.468;9.826;2023-09-12T02:44:16;22.10;99.90
44166;DHT22;30476;53.468;9.826;2023-09-12T02:46:42;22.10;99.90
44166;DHT22;30476;53.468;9.826;2023-09-12T02:49:07;22.10;99.90
44166;DHT22;30476;53.468;9.826;2023-09-12T02:51:33;22.10;99.90
44166;DHT22;30476;53.468;9.826;2023-09-12T02:53:59;22.10;99.90
44166;DHT22;30476;53.468;9.826;2023-09-12T02:56:25;22.00;99.90
44166;DHT22;30476;53.468;9.826;2023-09-12T02:58:51;22.00;99.90
44166;DHT22;30476;53.468;9.826;2023-09-12T03:01:17;22.10;99.90
44166;DHT22;30476;53.468;9.826;2023-09-12T03:03:46;22.00;99.90
44166;DHT22;30476;53.468;9.826;2023-09-12T03:06:13;22.00;99.90
44166;DHT22;30476;53.468;9.826;2023-09-12T03:08:40;22.00;99.90
44166;DHT22;30476;53.468;9.826;2023-09-12T03:11:06;22.00;99.90
44166;DHT22;30476;53.468;9.826;2023-09-12T03:13:34;22.00;99.90
44166;DHT22;30476;53.468;9.826;2023-09-12T03:16:00;22.00;99.90
44166;DHT22;30476;53.468;9.826;2023-09-12T03:18:26;22.00;99.90
44166;DHT22;30476;53.468;9.826;2023-09-12T03:20:52;21.90;99.90
44166;DHT22;30476;53.468;9.826;2023-09-12T03:23:19;21.90;99.90
44166;DHT22;30476;53.468;9.826;2023-09-12T03:25:45;21.90;99.90
44166;DHT22;30476;53.468;9.826;2023-09-12T03:28:11;21.90;99.90
44166;DHT22;30476;53.468;9.826;2023-09-12T03:30:38;21.90;99.90
44166;DHT22;30476;53.468;9.826;2023-09-12T03:33:04;21.90;99.90
44166;DHT22;30476;53.468;9.826;2023-09-12T03:35:32;21.90;99.90
44166;DHT22;30476;53.468;9.826;2023-09-12T03:37:58;21.90;99.90
44166;DHT22;30476;53.468;9.826;2023-09-12T03:40:24;21.90;99.90
44166;DHT22;30476;53.468;9.826;2023-09-12T03:42:50;21.90;99.90
44166;DHT22;30476;53.468;9.826;2023-09-12T03:45:16;21.90;99.90
44166;DHT22;30476;53.468;9.826;2023-09-12T03:47:42;21.90;99.90
44166;DHT22;30476;53.468;9.826;2023-09-12T03:50:09;21.90;99.90
44166;DHT22;30476;53.468;9.826;2023-09-12T03:52:35;21.90;99.90
44166;DHT22;30476;53.468;9.826;2023-09-12T03:55:00;21.80;99.90
44166;DHT22;30476;53.468;9.826;2023-09-12T03:57:26;21.80;99.90
44166;DHT22;30476;53.468;9.826;2023-09-12T03:59:52;21.80;99.90
44166;DHT22;30476;53.468;9.826;2023-09-12T04:02:18;21.80;99.90
44166;DHT22;30476;53.468;9.826;2023-09-12T04:04:44;21.80;99.90
44166;DHT22;30476;53.468;9.826;2023-09-12T04:07:10;21.80;99.90
44166;DHT22;30476;53.468;9.826;2023-09-12T04:09:36;21.80;99.90
44166;DHT22;30476;53.468;9.826;2023-09-12T04:12:02;21.80;99.90
44166;DHT22;30476;53.468;9.826;2023-09-12T04:14:27;21.80;99.90
44166;DHT22;30476;53.468;9.826;2023-09-12T04:16:53;21.80;99.90
44166;DHT22;30476;53.468;9.826;2023-09-12T04:19:19;21.80;99.90
44166;DHT22;30476;53.468;9.826;2023-09-12T04:21:45;21.80;99.90
44166;DHT22;30476;53.468;9.826;2023-09-12T04:24:10;21.70;99.90
44166;DHT22;30476;53.468;9.826;2023-09-12T04:26:36;21.70;99.90
44166;DHT22;30476;53.468;9.826;2023-09-12T04:29:02;21.70;99.90
44166;DHT22;30476;53.468;9.826;2023-09-12T04:31:28;21.70;99.90
44166;DHT22;30476;53.468;9.826;2023-09-12T04:33:54;21.70;99.90
44166;DHT22;30476;53.468;9.826;2023-09-12T04:36:20;21.70;99.90
44166;DHT22;30476;53.468;9.826;2023-09-12T04:38:46;21.70;99.90
44166;DHT22;30476;53.468;9.826;2023-09-12T04:41:13;21.70;99.90
44166;DHT22;30476;53.468;9.826;2023-09-12T04:43:43;21.70;99.90
44166;DHT22;30476;53.468;9.826;2023-09-12T04:46:10;21.70;99.90
44166;DHT22;30476;53.468;9.826;2023-09-12T04:48:37;21.60;99.90
44166;DHT22;30476;53.468;9.826;2023-09-12T04:51:03;21.70;99.90
44166;DHT22;30476;53.468;9.826;2023-09-12T04:53:29;21.70;99.90
44166;DHT22;30476;53.468;9.826;2023-09-12T04:56:01;21.60;99.90
44166;DHT22;30476;53.468;9.826;2023-09-12T04:58:26;21.60;99.90
44166;DHT22;30476;53.468;9.826;2023-09-12T05:00:54;21.60;99.90
44166;DHT22;30476;53.468;9.826;2023-09-12T05:03:19;21.60;99.90
44166;DHT22;30476;53.468;9.826;2023-09-12T05:05:47;21.60;99.90
44166;DHT22;30476;53.468;9.826;2023-09-12T05:08:13;21.60;99.90
44166;DHT22;30476;53.468;9.826;2023-09-12T05:10:39;21.60;99.90
44166;DHT22;30476;53.468;9.826;2023-09-12T05:13:05;21.60;99.90
44166;DHT22;30476;53.468;9.826;2023-09-12T05:15:31;21.60;99.90
44166;DHT22;30476;53.468;9.826;2023-09-12T05:17:56;21.60;99.90
44166;DHT22;30476;53.468;9.826;2023-09-12T05:20:22;21.60;99.90
44166;DHT22;30476;53.468;9.826;2023-09-12T05:22:48;21.60;99.90
44166;DHT22;30476;53.468;9.826;2023-09-12T05:25:14;21.60;99.90
44166;DHT22;30476;53.468;9.826;2023-09-12T05:27:39;21.60;99.90
44166;DHT22;30476;53.468;9.826;2023-09-12T05:30:06;21.60;99.90
44166;DHT22;30476;53.468;9.826;2023-09-12T05:32:32;21.60;99.90
44166;DHT22;30476;53.468;9.826;2023-09-12T05:34:57;21.60;99.90
44166;DHT22;30476;53.468;9.826;2023-09-12T05:37:23;21.60;99.90
44166;DHT22;30476;53.468;9.826;2023-09-12T05:39:49;21.50;99.90
44166;DHT22;30476;53.468;9.826;2023-09-12T05:42:15;21.60;99.90
44166;DHT22;30476;53.468;9.826;2023-09-12T05:44:47;21.50;99.90
44166;DHT22;30476;53.468;9.826;2023-09-12T05:47:14;21.60;99.90
44166;DHT22;30476;53.468;9.826;2023-09-12T05:49:40;21.50;99.90
44166;DHT22;30476;53.468;9.826;2023-09-12T05:52:06;21.50;99.90
44166;DHT22;30476;53.468;9.826;2023-09-12T05:54:31;21.60;99.90
44166;DHT22;30476;53.468;9.826;2023-09-12T05:56:57;21.60;99.90
44166;DHT22;30476;53.468;9.826;2023-09-12T05:59:23;21.60;99.90
44166;DHT22;30476;53.468;9.826;2023-09-12T06:01:49;21.50;99.90
44166;DHT22;30476;53.468;9.826;2023-09-12T06:04:14;21.50;99.90
44166;DHT22;30476;53.468;9.826;2023-09-12T06:06:40;21.60;99.90
44166;DHT22;30476;53.468;9.826;2023-09-12T06:09:06;21.60;99.90
44166;DHT22;30476;53.468;9.826;2023-09-12T06:11:34;21.60;99.90
44166;DHT22;30476;53.468;9.826;2023-09-12T06:14:00;21.60;99.90
44166;DHT22;30476;53.468;9.826;2023-09-12T06:16:25;21.60;99.90
44166;DHT22;30476;53.468;9.826;2023-09-12T06:18:52;21.60;99.90
44166;DHT22;30476;53.468;9.826;2023-09-12T06:21:19;21.60;99.90
44166;DHT22;30476;53.468;9.826;2023-09-12T06:23:47;21.60;99.90
44166;DHT22;30476;53.468;9.826;2023-09-12T06:26:14;21.60;99.90
44166;DHT22;30476;53.468;9.826;2023-09-12T06:28:40;21.60;99.90
44166;DHT22;30476;53.468;9.826;2023-09-12T06:31:08;21.60;99.90
44166;DHT22;30476;53.468;9.826;2023-09-12T06:33:35;21.70;99.90
44166;DHT22;30476;53.468;9.826;2023-09-12T06:36:00;21.70;99.90
44166;DHT22;30476;53.468;9.826;2023-09-12T06:38:26;21.70;99.90
44166;DHT22;30476;53.468;9.826;2023-09-12T06:40:52;21.70;99.90
44166;DHT22;30476;53.468;9.826;2023-09-12T06:43:18;21.70;99.90
44166;DHT22;30476;53.468;9.826;2023-09-12T06:45:45;21.70;99.90
44166;DHT22;30476;53.468;9.826;2023-09-12T06:48:11;21.70;99.90
44166;DHT22;30476;53.468;9.826;2023-09-12T06:50:36;21.80;99.90
44166;DHT22;30476;53.468;9.826;2023-09-12T06:53:04;21.70;99.90
44166;DHT22;30476;53.468;9.826;2023-09-12T06:55:32;21.80;99.90
44166;DHT22;30476;53.468;9.826;2023-09-12T06:57:58;21.70;99.90
44166;DHT22;30476;53.468;9.826;2023-09-12T07:00:24;21.80;99.90
44166;DHT22;30476;53.468;9.826;2023-09-12T07:02:50;21.80;99.90
44166;DHT22;30476;53.468;9.826;2023-09-12T07:05:15;21.80;99.90
44166;DHT22;30476;53.468;9.826;2023-09-12T07:07:41;21.80;99.90
44166;DHT22;30476;53.468;9.826;2023-09-12T07:10:07;21.80;99.90
44166;DHT22;30476;53.468;9.826;2023-09-12T07:12:33;21.80;99.90
44166;DHT22;30476;53.468;9.826;2023-09-12T07:14:59;21.80;99.90
44166;DHT22;30476;53.468;9.826;2023-09-12T07:17:27;21.80;99.90
44166;DHT22;30476;53.468;9.826;2023-09-12T07:19:53;21.90;99.90
44166;DHT22;30476;53.468;9.826;2023-09-12T07:22:19;21.80;99.90
44166;DHT22;30476;53.468;9.826;2023-09-12T07:24:45;21.90;99.90
44166;DHT22;30476;53.468;9.826;2023-09-12T07:27:10;21.90;99.90
44166;DHT22;30476;53.468;9.826;2023-09-12T07:29:38;21.90;99.90
44166;DHT22;30476;53.468;9.826;2023-09-12T07:32:04;21.90;99.90
44166;DHT22;30476;53.468;9.826;2023-09-12T07:34:29;21.90;99.90
44166;DHT22;30476;53.468;9.826;2023-09-12T07:36:55;21.90;99.90
44166;DHT22;30476;53.468;9.826;2023-09-12T07:39:21;21.90;99.90
44166;DHT22;30476;53.468;9.826;2023-09-12T07:41:47;21.90;99.90
44166;DHT22;30476;53.468;9.826;2023-09-12T07:44:12;21.90;99.90
44166;DHT22;30476;53.468;9.826;2023-09-12T07:46:41;22.00;99.90
44166;DHT22;30476;53.468;9.826;2023-09-12T07:49:07;22.00;99.90
44166;DHT22;30476;53.468;9.826;2023-09-12T07:51:35;22.00;99.90
44166;DHT22;30476;53.468;9.826;2023-09-12T07:54:01;22.00;99.90
44166;DHT22;30476;53.468;9.826;2023-09-12T07:56:27;22.10;99.90
44166;DHT22;30476;53.468;9.826;2023-09-12T07:58:53;22.00;99.90
44166;DHT22;30476;53.468;9.826;2023-09-12T08:01:18;22.10;99.90
44166;DHT22;30476;53.468;9.826;2023-09-12T08:03:44;22.10;99.90
44166;DHT22;30476;53.468;9.826;2023-09-12T08:06:10;22.20;99.90
44166;DHT22;30476;53.468;9.826;2023-09-12T08:08:36;22.20;99.90
44166;DHT22;30476;53.468;9.826;2023-09-12T08:11:02;22.20;99.90
44166;DHT22;30476;53.468;9.826;2023-09-12T08:13:29;22.20;99.90
44166;DHT22;30476;53.468;9.826;2023-09-12T08:15:56;22.30;99.90
44166;DHT22;30476;53.468;9.826;2023-09-12T08:18:25;22.40;99.90
44166;DHT22;30476;53.468;9.826;2023-09-12T08:20:51;22.40;99.90
44166;DHT22;30476;53.468;9.826;2023-09-12T08:23:17;22.40;99.90
44166;DHT22;30476;53.468;9.826;2023-09-12T08:25:43;22.50;99.90
44166;DHT22;30476;53.468;9.826;2023-09-12T08:28:08;22.60;99.90
44166;DHT22;30476;53.468;9.826;2023-09-12T08:30:34;22.60;99.90
44166;DHT22;30476;53.468;9.826;2023-09-12T08:33:00;22.70;99.90
44166;DHT22;30476;53.468;9.826;2023-09-12T08:35:28;22.80;99.90
44166;DHT22;30476;53.468;9.826;2023-09-12T08:37:54;22.70;99.90
44166;DHT22;30476;53.468;9.826;2023-09-12T08:40:20;22.80;99.90
44166;DHT22;30476;53.468;9.826;2023-09-12T08:42:47;22.80;99.90
44166;DHT22;30476;53.468;9.826;2023-09-12T08:45:18;22.90;99.90
44166;DHT22;30476;53.468;9.826;2023-09-12T08:47:48;23.00;99.90
44166;DHT22;30476;53.468;9.826;2023-09-12T08:50:15;23.00;99.90
44166;DHT22;30476;53.468;9.826;2023-09-12T08:52:45;23.10;99.90
44166;DHT22;30476;53.468;9.826;2023-09-12T08:55:11;23.10;99.90
44166;DHT22;30476;53.468;9.826;2023-09-12T08:57:42;23.10;99.90
44166;DHT22;30476;53.468;9.826;2023-09-12T09:00:08;23.10;99.90
44166;DHT22;30476;53.468;9.826;2023-09-12T09:02:36;23.10;99.90
44166;DHT22;30476;53.468;9.826;2023-09-12T09:05:04;23.20;99.90
44166;DHT22;30476;53.468;9.826;2023-09-12T09:07:38;23.20;99.90
44166;DHT22;30476;53.468;9.826;2023-09-12T09:10:05;23.20;99.90
44166;DHT22;30476;53.468;9.826;2023-09-12T09:12:33;23.30;99.90
44166;DHT22;30476;53.468;9.826;2023-09-12T09:14:59;23.30;99.90
44166;DHT22;30476;53.468;9.826;2023-09-12T09:17:44;23.30;99.90
44166;DHT22;30476;53.468;9.826;2023-09-12T09:20:25;23.40;99.90
44166;DHT22;30476;53.468;9.826;2023-09-12T09:22:59;23.40;99.90
44166;DHT22;30476;53.468;9.826;2023-09-12T09:25:25;23.50;99.90
44166;DHT22;30476;53.468;9.826;2023-09-12T09:27:50;23.50;99.90
44166;DHT22;30476;53.468;9.826;2023-09-12T09:30:16;23.60;99.90
44166;DHT22;30476;53.468;9.826;2023-09-12T09:32:44;23.60;99.90
44166;DHT22;30476;53.468;9.826;2023-09-12T09:35:11;23.60;99.90
44166;DHT22;30476;53.468;9.826;2023-09-12T09:37:38;23.70;99.90
44166;DHT22;30476;53.468;9.826;2023-09-12T09:40:07;23.70;99.90
44166;DHT22;30476;53.468;9.826;2023-09-12T09:42:33;23.80;99.90
44166;DHT22;30476;53.468;9.826;2023-09-12T09:45:00;23.80;99.90
44166;DHT22;30476;53.468;9.826;2023-09-12T09:47:26;23.80;99.90
44166;DHT22;30476;53.468;9.826;2023-09-12T09:49:51;23.90;99.90
44166;DHT22;30476;53.468;9.826;2023-09-12T09:52:25;23.90;99.90
44166;DHT22;30476;53.468;9.826;2023-09-12T09:54:52;23.90;99.90
44166;DHT22;30476;53.468;9.826;2023-09-12T09:57:18;23.90;99.90
44166;DHT22;30476;53.468;9.826;2023-09-12T09:59:48;23.80;99.90
44166;DHT22;30476;53.468;9.826;2023-09-12T10:02:18;23.80;99.90
44166;DHT22;30476;53.468;9.826;2023-09-12T10:04:47;23.80;99.90
44166;DHT22;30476;53.468;9.826;2023-09-12T10:07:14;23.80;99.90
44166;DHT22;30476;53.468;9.826;2023-09-12T10:09:40;23.70;99.90
44166;DHT22;30476;53.468;9.826;2023-09-12T10:12:08;23.70;99.90
44166;DHT22;30476;53.468;9.826;2023-09-12T10:14:34;23.70;99.90
44166;DHT22;30476;53.468;9.826;2023-09-12T10:17:02;23.70;99.90
44166;DHT22;30476;53.468;9.826;2023-09-12T10:19:51;23.70;99.90
44166;DHT22;30476;53.468;9.826;2023-09-12T10:22:29;23.60;99.90
44166;DHT22;30476;53.468;9.826;2023-09-12T10:24:57;23.60;99.90
44166;DHT22;30476;53.468;9.826;2023-09-12T10:27:24;23.60;99.90
44166;DHT22;30476;53.468;9.826;2023-09-12T10:29:51;23.60;99.90
44166;DHT22;30476;53.468;9.826;2023-09-12T10:32:19;23.60;99.90
44166;DHT22;30476;53.468;9.826;2023-09-12T10:34:46;23.60;99.90
44166;DHT22;30476;53.468;9.826;2023-09-12T10:37:15;23.50;99.90
44166;DHT22;30476;53.468;9.826;2023-09-12T10:39:43;23.50;99.90
44166;DHT22;30476;53.468;9.826;2023-09-12T10:42:09;23.50;99.90
44166;DHT22;30476;53.468;9.826;2023-09-12T10:44:36;23.50;99.90
44166;DHT22;30476;53.468;9.826;2023-09-12T10:47:04;23.50;99.90
44166;DHT22;30476;53.468;9.826;2023-09-12T10:49:30;23.50;99.90
44166;DHT22;30476;53.468;9.826;2023-09-12T10:51:57;23.50;99.90
44166;DHT22;30476;53.468;9.826;2023-09-12T10:54:25;23.40;99.90
44166;DHT22;30476;53.468;9.826;2023-09-12T10:57:08;23.40;99.90
44166;DHT22;30476;53.468;9.826;2023-09-12T10:59:34;23.40;99.90
44166;DHT22;30476;53.468;9.826;2023-09-12T11:04:52;23.40;99.90
44166;DHT22;30476;53.468;9.826;2023-09-12T11:07:31;23.40;99.90
44166;DHT22;30476;53.468;9.826;2023-09-12T11:12:45;23.30;99.90
44166;DHT22;30476;53.468;9.826;2023-09-12T11:15:11;23.20;99.90
44166;DHT22;30476;53.468;9.826;2023-09-12T11:17:41;23.20;99.90
44166;DHT22;30476;53.468;9.826;2023-09-12T11:20:08;23.20;99.90
44166;DHT22;30476;53.468;9.826;2023-09-12T11:22:46;23.20;99.90
44166;DHT22;30476;53.468;9.826;2023-09-12T11:25:16;23.10;99.90
44166;DHT22;30476;53.468;9.826;2023-09-12T11:30:23;23.10;99.90
44166;DHT22;30476;53.468;9.826;2023-09-12T11:32:53;23.00;99.90
44166;DHT22;30476;53.468;9.826;2023-09-12T11:35:27;23.00;99.90
44166;DHT22;30476;53.468;9.826;2023-09-12T11:40:44;22.80;99.90
44166;DHT22;30476;53.468;9.826;2023-09-12T11:43:25;22.90;99.90
44166;DHT22;30476;53.468;9.826;2023-09-12T11:45:52;22.80;99.90
44166;DHT22;30476;53.468;9.826;2023-09-12T11:48:19;22.80;99.90
44166;DHT22;30476;53.468;9.826;2023-09-12T11:50:53;22.80;99.90
44166;DHT22;30476;53.468;9.826;2023-09-12T11:53:21;22.70;99.90
44166;DHT22;30476;53.468;9.826;2023-09-12T11:55:58;22.80;99.90
44166;DHT22;30476;53.468;9.826;2023-09-12T11:58:25;22.80;99.90
44166;DHT22;30476;53.468;9.826;2023-09-12T12:00:57;22.70;99.90
44166;DHT22;30476;53.468;9.826;2023-09-12T12:03:25;22.70;99.90
44166;DHT22;30476;53.468;9.826;2023-09-12T12:05:52;22.70;99.90
44166;DHT22;30476;53.468;9.826;2023-09-12T12:08:18;22.70;99.90
44166;DHT22;30476;53.468;9.826;2023-09-12T12:10:52;22.70;99.90
44166;DHT22;30476;53.468;9.826;2023-09-12T12:13:19;22.70;99.90
44166;DHT22;30476;53.468;9.826;2023-09-12T12:15:45;22.70;99.90
44166;DHT22;30476;53.468;9.826;2023-09-12T12:18:10;22.70;99.90
44166;DHT22;30476;53.468;9.826;2023-09-12T12:20:36;22.70;99.90
44166;DHT22;30476;53.468;9.826;2023-09-12T12:23:02;22.70;99.90
44166;DHT22;30476;53.468;9.826;2023-09-12T12:25:32;22.70;99.90
44166;DHT22;30476;53.468;9.826;2023-09-12T12:28:03;22.70;99.90
44166;DHT22;30476;53.468;9.826;2023-09-12T12:30:33;22.70;99.90
44166;DHT22;30476;53.468;9.826;2023-09-12T12:33:01;22.70;99.90
44166;DHT22;30476;53.468;9.826;2023-09-12T12:35:28;22.70;99.90
44166;DHT22;30476;53.468;9.826;2023-09-12T12:37:55;22.70;99.90
44166;DHT22;30476;53.468;9.826;2023-09-12T12:40:23;22.70;99.90
44166;DHT22;30476;53.468;9.826;2023-09-12T12:42:49;22.70;99.90
44166;DHT22;30476;53.468;9.826;2023-09-12T12:45:19;22.70;99.90
44166;DHT22;30476;53.468;9.826;2023-09-12T12:47:46;22.70;99.90
44166;DHT22;30476;53.468;9.826;2023-09-12T12:52:38;22.70;99.90
44166;DHT22;30476;53.468;9.826;2023-09-12T12:55:11;22.80;99.90
44166;DHT22;30476;53.468;9.826;2023-09-12T12:57:41;22.70;99.90
44166;DHT22;30476;53.468;9.826;2023-09-12T13:00:17;22.70;99.90
44166;DHT22;30476;53.468;9.826;2023-09-12T13:02:44;22.70;99.90
44166;DHT22;30476;53.468;9.826;2023-09-12T13:05:30;22.70;99.90
44166;DHT22;30476;53.468;9.826;2023-09-12T13:07:56;22.70;99.90
44166;DHT22;30476;53.468;9.826;2023-09-12T13:10:22;22.70;99.90
44166;DHT22;30476;53.468;9.826;2023-09-12T13:12:49;22.80;99.90
44166;DHT22;30476;53.468;9.826;2023-09-12T13:15:15;22.70;99.90
44166;DHT22;30476;53.468;9.826;2023-09-12T13:17:42;22.70;99.90
44166;DHT22;30476;53.468;9.826;2023-09-12T13:20:09;22.80;99.90
44166;DHT22;30476;53.468;9.826;2023-09-12T13:22:35;22.90;99.90
44166;DHT22;30476;53.468;9.826;2023-09-12T13:25:02;23.00;99.90
44166;DHT22;30476;53.468;9.826;2023-09-12T13:27:28;23.00;99.90
44166;DHT22;30476;53.468;9.826;2023-09-12T13:29:54;23.10;99.90
44166;DHT22;30476;53.468;9.826;2023-09-12T13:32:20;23.20;99.90
44166;DHT22;30476;53.468;9.826;2023-09-12T13:34:46;23.30;99.90
44166;DHT22;30476;53.468;9.826;2023-09-12T13:37:12;23.30;99.90
44166;DHT22;30476;53.468;9.826;2023-09-12T13:39:37;23.30;99.90
44166;DHT22;30476;53.468;9.826;2023-09-12T13:42:06;23.40;99.90
44166;DHT22;30476;53.468;9.826;2023-09-12T13:44:33;23.50;99.90
44166;DHT22;30476;53.468;9.826;2023-09-12T13:46:59;23.60;99.90
44166;DHT22;30476;53.468;9.826;2023-09-12T13:49:25;23.60;99.90
44166;DHT22;30476;53.468;9.826;2023-09-12T13:51:51;23.70;99.90
44166;DHT22;30476;53.468;9.826;2023-09-12T13:54:17;23.80;99.90
44166;DHT22;30476;53.468;9.826;2023-09-12T13:56:43;23.80;99.90
44166;DHT22;30476;53.468;9.826;2023-09-12T13:59:09;23.70;99.90
44166;DHT22;30476;53.468;9.826;2023-09-12T14:01:35;23.80;99.90
44166;DHT22;30476;53.468;9.826;2023-09-12T14:04:02;23.80;99.90
44166;DHT22;30476;53.468;9.826;2023-09-12T14:06:28;23.80;99.90
44166;DHT22;30476;53.468;9.826;2023-09-12T14:08:53;23.80;99.90
44166;DHT22;30476;53.468;9.826;2023-09-12T14:11:19;23.80;99.90
44166;DHT22;30476;53.468;9.826;2023-09-12T14:13:45;23.80;99.90
44166;DHT22;30476;53.468;9.826;2023-09-12T14:16:11;23.80;99.90
44166;DHT22;30476;53.468;9.826;2023-09-12T14:18:37;23.80;99.90
44166;DHT22;30476;53.468;9.826;2023-09-12T14:21:03;23.80;99.90
44166;DHT22;30476;53.468;9.826;2023-09-12T14:23:28;23.90;99.90
44166;DHT22;30476;53.468;9.826;2023-09-12T14:25:54;23.90;99.90
44166;DHT22;30476;53.468;9.826;2023-09-12T14:28:20;23.80;99.90
44166;DHT22;30476;53.468;9.826;2023-09-12T14:30:46;23.80;99.90
44166;DHT22;30476;53.468;9.826;2023-09-12T14:33:14;23.90;99.90
44166;DHT22;30476;53.468;9.826;2023-09-12T14:35:40;23.90;99.90
44166;DHT22;30476;53.468;9.826;2023-09-12T14:38:07;23.90;99.90
44166;DHT22;30476;53.468;9.826;2023-09-12T14:40:33;24.00;99.90
44166;DHT22;30476;53.468;9.826;2023-09-12T14:43:00;24.00;99.90
44166;DHT22;30476;53.468;9.826;2023-09-12T14:45:27;24.00;99.90
44166;DHT22;30476;53.468;9.826;2023-09-12T14:47:53;24.00;99.90
44166;DHT22;30476;53.468;9.826;2023-09-12T14:50:21;24.00;99.90
44166;DHT22;30476;53.468;9.826;2023-09-12T14:52:50;24.00;99.90
44166;DHT22;30476;53.468;9.826;2023-09-12T14:55:16;24.00;99.90
44166;DHT22;30476;53.468;9.826;2023-09-12T14:57:42;24.00;99.90
44166;DHT22;30476;53.468;9.826;2023-09-12T15:00:08;24.00;99.90
44166;DHT22;30476;53.468;9.826;2023-09-12T15:02:34;23.90;99.90
44166;DHT22;30476;53.468;9.826;2023-09-12T15:05:01;24.00;99.90
44166;DHT22;30476;53.468;9.826;2023-09-12T15:07:28;24.00;99.90
44166;DHT22;30476;53.468;9.826;2023-09-12T15:09:57;23.90;99.90
44166;DHT22;30476;53.468;9.826;2023-09-12T15:12:23;24.00;99.90
44166;DHT22;30476;53.468;9.826;2023-09-12T15:14:50;24.00;99.90
44166;DHT22;30476;53.468;9.826;2023-09-12T15:17:17;24.10;99.90
44166;DHT22;30476;53.468;9.826;2023-09-12T15:19:43;24.10;99.90
44166;DHT22;30476;53.468;9.826;2023-09-12T15:22:09;24.10;99.90
44166;DHT22;30476;53.468;9.826;2023-09-12T15:24:34;24.10;99.90
44166;DHT22;30476;53.468;9.826;2023-09-12T15:27:00;24.10;99.90
44166;DHT22;30476;53.468;9.826;2023-09-12T15:29:26;24.10;99.90
44166;DHT22;30476;53.468;9.826;2023-09-12T15:31:53;24.10;99.90
44166;DHT22;30476;53.468;9.826;2023-09-12T15:34:19;24.10;99.90
44166;DHT22;30476;53.468;9.826;2023-09-12T15:36:46;24.20;99.90
44166;DHT22;30476;53.468;9.826;2023-09-12T15:39:13;24.20;99.90
44166;DHT22;30476;53.468;9.826;2023-09-12T15:41:39;24.20;99.90
44166;DHT22;30476;53.468;9.826;2023-09-12T15:44:05;24.20;99.90
44166;DHT22;30476;53.468;9.826;2023-09-12T15:46:31;24.20;99.90